Terminal Aerodrome Forecast
Issued by NWS Spokane, WA

Home | Current Version | Previous Version | Text Only | Print | Product List | Glossary On
Versions: 1 2 3 4 5 6 7 8 9 10 11 12 13 14 15 16 17 18 19 20 21 22 23 24 25 26
000
FTUS46 KOTX 271129
TAFEAT
TAF
KEAT 271129Z 2712/2812 32015KT P6SM SKC
     FM272300 30016G21KT P6SM FEW070 FEW200
     FM280600 30014G20KT P6SM SKC
     FM280700 31011KT P6SM SKC=

USA.gov is the U.S. government's official web portal to all federal, state and local government web resources and services.